»·PEaware :: N954JA KOXR-KSBA

N954JA :: KOXR-KSBA

FLIGHT INFORMATION

Flight Status: Arrived
Operator: Privately registered:
United States
More flights under this callsign
Pilot: Anonymous 18467 (18467)
Aircraft: CESSNA 172 SKYHAWK
(C172)
More flights by this aircraft type
Origin: KOXR Oxnard
United States
Destination: KSBA Santa Barbara Mun
United States
More flights between these airports :: More routes between these airports
Route: +KWANG
File this flight plan on PilotEdge
Remarks:
Altitude:
(Current/Filed)
6,000ft
Speed:
(Current/Filed)
110kts
Departed: 16-Apr-18 05:46 PM
Arrived: 16-Apr-18 06:30 PM
Distance/Time
Traveled:
34nm/0:44
Distance/Time
To Go:
Arrived

Flight Plot

Page will automatically refresh every two minutes.


Map Options




Map Legend


Flown Route
Filed Route
Departure Airport
Arrival Airport
Navaid (VOR, NDB)
Fix

Horizontal Profiles

Position Reports

Time Latitude Longitude Heading Altitude Ground
Speed
16-Apr-18 17:27 34.198815 -119.198488 359 46ft 0kts
16-Apr-18 17:28 34.198815 -119.198488 359 46ft 0kts
16-Apr-18 17:32 34.198815 -119.198487 359 46ft 0kts
16-Apr-18 17:33 34.198815 -119.198487 359 46ft 0kts
16-Apr-18 17:34 34.198815 -119.198488 359 46ft 0kts
16-Apr-18 17:35 34.198815 -119.198487 359 46ft 0kts
16-Apr-18 17:36 34.198815 -119.198487 359 46ft 0kts
16-Apr-18 17:37 34.198815 -119.198488 359 46ft 0kts
16-Apr-18 17:38 34.198854 -119.198517 294 46ft 1kts
16-Apr-18 17:39 34.199975 -119.197519 0 46ft 2kts
16-Apr-18 17:40 34.199976 -119.197519 359 46ft 0kts
16-Apr-18 17:41 34.199976 -119.197519 359 46ft 0kts
16-Apr-18 17:42 34.199976 -119.197519 359 46ft 0kts
16-Apr-18 17:43 34.199983 -119.197515 341 46ft 0kts
16-Apr-18 17:44 34.200673 -119.197722 269 46ft 10kts
16-Apr-18 17:45 34.200186 -119.209863 260 753ft 42kts
16-Apr-18 17:46 34.200570 -119.225247 257 1664ft 44kts
16-Apr-18 17:47 34.200378 -119.241223 269 2496ft 51kts
16-Apr-18 17:48 34.201155 -119.257569 266 3337ft 49kts
16-Apr-18 17:49 34.203931 -119.274022 272 3967ft 63kts
16-Apr-18 17:50 34.206775 -119.299012 281 3999ft 82kts
16-Apr-18 17:51 34.219171 -119.323761 290 4017ft 90kts
16-Apr-18 17:52 34.231797 -119.350922 290 4058ft 88kts
16-Apr-18 17:53 34.248432 -119.376143 303 4043ft 103kts
16-Apr-18 17:54 34.260614 -119.406159 285 3891ft 99kts
16-Apr-18 17:55 34.268223 -119.437930 293 3766ft 103kts
16-Apr-18 17:56 34.281936 -119.465843 281 3921ft 93kts
16-Apr-18 17:57 34.295264 -119.493879 290 3963ft 97kts
16-Apr-18 17:58 34.307876 -119.522320 275 4023ft 93kts
16-Apr-18 17:59 34.309386 -119.553898 280 4070ft 89kts
16-Apr-18 18:00 34.310127 -119.580523 272 3742ft 102kts
16-Apr-18 18:01 34.316100 -119.610478 287 3974ft 80kts
16-Apr-18 18:02 34.325067 -119.636339 286 3848ft 85kts
16-Apr-18 18:03 34.332508 -119.662308 276 3976ft 94kts
16-Apr-18 18:04 34.337794 -119.692086 279 4018ft 98kts
16-Apr-18 18:05 34.343350 -119.723068 273 3852ft 89kts
16-Apr-18 18:06 34.349793 -119.750626 279 3964ft 86kts
16-Apr-18 18:07 34.358374 -119.784069 278 4134ft 93kts
16-Apr-18 18:08 34.361578 -119.813051 269 4372ft 89kts
16-Apr-18 18:09 34.362916 -119.843286 275 4420ft 89kts
16-Apr-18 18:10 34.364473 -119.867947 276 4050ft 87kts
16-Apr-18 18:11 34.366462 -119.895196 266 3804ft 73kts
16-Apr-18 18:12 34.367171 -119.922207 273 4057ft 83kts
16-Apr-18 18:13 34.368058 -119.952538 272 4139ft 94kts
16-Apr-18 18:14 34.368115 -119.984547 272 4029ft 91kts
16-Apr-18 18:15 34.369539 -120.014516 280 3812ft 85kts
16-Apr-18 18:16 34.368849 -120.043205 267 3935ft 92kts
16-Apr-18 18:17 34.368370 -120.074048 271 4076ft 91kts
16-Apr-18 18:18 34.381307 -120.097246 343 4065ft 113kts
16-Apr-18 18:19 34.410639 -120.100505 338 3908ft 92kts
16-Apr-18 18:20 34.438616 -120.105534 342 4059ft 104kts
16-Apr-18 18:21 34.458076 -120.118294 211 4140ft 114kts
16-Apr-18 18:22 34.434370 -120.089873 124 3800ft 137kts
16-Apr-18 18:23 34.424120 -120.048823 99 2885ft 125kts
16-Apr-18 18:24 34.423191 -120.006075 78 2192ft 131kts
16-Apr-18 18:25 34.423737 -119.965155 91 1835ft 124kts
16-Apr-18 18:26 34.431187 -119.932910 28 1086ft 90kts
16-Apr-18 18:27 34.429401 -119.896077 101 777ft 120kts
16-Apr-18 18:28 34.427774 -119.861844 86 142ft 79kts
16-Apr-18 18:29 34.427740 -119.841595 79 17ft 20kts
16-Apr-18 18:30 34.426988 -119.838437 167 17ft 0kts
16-Apr-18 18:31 34.423356 -119.837265 158 17ft 21kts

Navigation Log

Ident Type
Flight plan parsing failed, navigation log unavailable